Time;durP1;ratioP1;P1;durP2;ratioP2;P2;SDS_P1;SDS_P2;PMS_P1;PMS_P2;Temp;Humidity;BMP_temperature;BMP_pressure;BME280_temperature;BME280_humidity;BME280_pressure;Samples;Min_cycle;Max_cycle;Signal;HPM_P1;HPM_P2
2024/04/03 00:01:21;;;;;;;0.50;0.50;;;;;;;7.66;79.57;99196.56;5113745;28;20035;-67
2024/04/03 00:03:48;;;;;;;0.38;0.38;;;;;;;7.64;79.72;99205.88;5113509;28;20392;-66
2024/04/03 00:06:16;;;;;;;0.30;0.30;;;;;;;7.59;79.39;99194.84;5113591;28;20050;-67
2024/04/03 00:08:43;;;;;;;0.30;0.30;;;;;;;7.63;79.30;99206.72;5096425;28;20047;-67
2024/04/03 00:11:11;;;;;;;0.68;0.68;;;;;;;7.60;79.61;99204.19;5113562;28;20561;-66
2024/04/03 00:13:37;;;;;;;0.50;0.50;;;;;;;7.62;79.85;99199.09;5113624;28;20501;-66
2024/04/03 00:16:07;;;;;;;0.75;0.65;;;;;;;7.65;79.87;99194.91;5113341;28;20048;-67
2024/04/03 00:18:34;;;;;;;0.50;0.50;;;;;;;7.62;79.91;99197.41;5113270;28;20074;-67
2024/04/03 00:21:02;;;;;;;0.30;0.30;;;;;;;7.61;79.82;99197.41;5113741;28;20063;-67
2024/04/03 00:23:29;;;;;;;0.60;0.60;;;;;;;7.57;79.78;99196.56;5112885;28;20046;-67
2024/04/03 00:25:58;;;;;;;0.47;0.47;;;;;;;7.54;78.94;99191.44;5113353;28;20035;-67
2024/04/03 00:28:25;;;;;;;0.47;0.47;;;;;;;7.53;79.03;99188.91;5113146;28;20138;-66
2024/04/03 00:30:53;;;;;;;0.50;0.50;;;;;;;7.55;79.16;99193.16;5113268;28;20051;-67
2024/04/03 00:33:22;;;;;;;0.30;0.30;;;;;;;7.49;78.52;99189.72;5113032;28;20562;-66
2024/04/03 00:35:57;;;;;;;0.25;0.25;;;;;;;7.41;79.45;99187.19;5096225;28;20038;-67
2024/04/03 00:38:24;;;;;;;0.30;0.30;;;;;;;7.40;78.64;99193.09;5096492;28;20473;-67
2024/04/03 00:40:56;;;;;;;0.30;0.30;;;;;;;7.32;78.67;99166.81;5112827;28;20436;-67
2024/04/03 00:43:23;;;;;;;0.20;0.20;;;;;;;7.22;79.31;99153.25;5113700;28;20059;-67
2024/04/03 00:45:52;;;;;;;0.90;0.90;;;;;;;7.40;79.48;99181.25;5112521;28;20061;-66
2024/04/03 00:48:22;;;;;;;0.80;0.80;;;;;;;7.35;79.21;99185.47;5095500;28;20451;-67
2024/04/03 00:50:51;;;;;;;0.40;0.40;;;;;;;7.41;79.36;99184.66;5096028;28;20039;-67
2024/04/03 00:53:19;;;;;;;0.60;0.60;;;;;;;7.37;78.65;99188.84;5112734;28;20046;-66
2024/04/03 00:55:47;;;;;;;0.30;0.30;;;;;;;7.26;78.48;99175.28;5112941;28;20047;-67
2024/04/03 00:58:13;;;;;;;0.30;0.30;;;;;;;7.27;78.35;99188.84;5112638;28;20134;-67
2024/04/03 01:00:41;;;;;;;0.80;0.75;;;;;;;7.21;78.46;99176.09;5095973;28;20042;-67
2024/04/03 01:03:08;;;;;;;0.98;0.98;;;;;;;7.06;78.69;99164.19;5112948;28;20055;-67
2024/04/03 01:05:38;;;;;;;0.50;0.50;;;;;;;7.15;79.22;99176.09;5112798;28;20047;-67
2024/04/03 01:08:05;;;;;;;0.30;0.30;;;;;;;7.19;79.40;99172.72;5112780;28;20051;-67
2024/04/03 01:10:33;;;;;;;0.25;0.25;;;;;;;7.26;79.71;99169.34;5112478;28;20424;-66
2024/04/03 01:13:01;;;;;;;0.40;0.40;;;;;;;7.32;79.69;99164.28;5112664;28;20074;-66
2024/04/03 01:15:29;;;;;;;2.28;0.80;;;;;;;7.39;79.19;99166.00;5112483;28;20047;-67
2024/04/03 01:17:56;;;;;;;0.40;0.40;;;;;;;7.25;79.10;99147.34;5112829;28;20040;-67
2024/04/03 01:20:25;;;;;;;0.30;0.30;;;;;;;7.15;78.89;99156.59;5095488;28;20097;-67
2024/04/03 01:22:53;;;;;;;0.40;0.40;;;;;;;6.96;78.60;99128.63;5112828;28;20043;-66
2024/04/03 01:25:22;;;;;;;0.50;0.50;;;;;;;7.14;78.79;99149.00;5112950;28;20494;-66
2024/04/03 01:27:49;;;;;;;0.30;0.30;;;;;;;7.05;79.61;99118.53;5112608;28;20043;-66
2024/04/03 01:30:16;;;;;;;0.50;0.50;;;;;;;7.33;79.27;99155.84;5112696;28;20051;-66
2024/04/03 01:32:45;;;;;;;0.55;0.55;;;;;;;7.32;78.56;99156.69;5112655;28;20481;-67
2024/04/03 01:35:12;;;;;;;0.30;0.30;;;;;;;7.33;79.04;99160.91;5112603;28;20040;-67
2024/04/03 01:37:40;;;;;;;0.40;0.40;;;;;;;7.31;78.83;99155.00;5112609;28;20159;-66
2024/04/03 01:40:08;;;;;;;0.30;0.30;;;;;;;7.23;78.43;99154.09;5112941;28;20081;-67
2024/04/03 01:42:37;;;;;;;0.57;0.57;;;;;;;7.12;78.85;99149.00;5095542;28;20439;-67
2024/04/03 01:45:05;;;;;;;0.50;0.50;;;;;;;7.13;79.01;99142.22;5112343;28;20043;-67
2024/04/03 01:47:32;;;;;;;0.40;0.40;;;;;;;7.09;78.63;99145.59;5112423;28;20040;-66
2024/04/03 01:50:00;;;;;;;0.50;0.50;;;;;;;7.07;79.04;99137.13;5112518;28;20047;-66
2024/04/03 01:52:27;;;;;;;0.55;0.55;;;;;;;7.09;78.81;99148.13;5095510;28;20481;-67
2024/04/03 01:54:54;;;;;;;0.40;0.40;;;;;;;7.03;78.60;99141.34;5112506;28;20100;-66
2024/04/03 01:57:22;;;;;;;0.40;0.40;;;;;;;7.00;78.75;99143.03;5097342;28;20050;-67
2024/04/03 01:59:50;;;;;;;0.30;0.30;;;;;;;6.97;78.74;99143.84;5116052;28;20066;-66
2024/04/03 02:02:18;;;;;;;0.32;0.32;;;;;;;6.96;79.14;99136.25;5115908;28;20040;-67
2024/04/03 02:04:44;;;;;;;0.30;0.30;;;;;;;6.90;78.46;99148.88;5115923;28;20112;-66
2024/04/03 02:07:13;;;;;;;0.32;0.32;;;;;;;6.88;78.70;99140.44;5115965;28;20057;-67
2024/04/03 02:09:39;;;;;;;0.40;0.40;;;;;;;6.86;78.43;99142.09;5115782;28;20043;-67
2024/04/03 02:12:07;;;;;;;0.40;0.40;;;;;;;6.83;78.26;99152.22;5115647;28;20035;-67
2024/04/03 02:14:34;;;;;;;2.42;1.23;;;;;;;6.84;78.57;99151.41;5115708;28;20035;-67
2024/04/03 02:17:04;;;;;;;0.40;0.40;;;;;;;6.83;78.54;99147.16;5115780;28;20035;-67
2024/04/03 02:19:30;;;;;;;0.30;0.30;;;;;;;6.90;78.34;99136.19;5115320;28;20044;-67
2024/04/03 02:21:58;;;;;;;1.63;1.05;;;;;;;6.90;78.65;99133.66;5115672;28;20115;-67
2024/04/03 02:24:25;;;;;;;0.50;0.50;;;;;;;6.85;78.48;99138.72;5115343;28;20031;-67
2024/04/03 02:26:53;;;;;;;0.47;0.47;;;;;;;6.77;78.50;99137.00;5115594;28;20096;-70
2024/04/03 02:29:19;;;;;;;0.30;0.30;;;;;;;6.63;78.46;99140.28;5115350;28;20040;-66
2024/04/03 02:31:47;;;;;;;0.65;0.63;;;;;;;6.59;78.49;99133.50;5115495;28;20043;-66
2024/04/03 02:34:16;;;;;;;0.43;0.43;;;;;;;6.58;78.85;99129.25;5115021;28;20046;-67
2024/04/03 02:36:44;;;;;;;0.35;0.35;;;;;;;6.61;79.16;99139.44;5081562;28;20570;-67
2024/04/03 02:39:10;;;;;;;0.20;0.20;;;;;;;6.58;79.03;99136.88;5115302;28;20045;-67
2024/04/03 02:41:38;;;;;;;0.30;0.30;;;;;;;6.54;78.96;99135.16;5115001;28;20075;-67
2024/04/03 02:44:05;;;;;;;0.30;0.30;;;;;;;6.47;79.29;99133.44;5114863;28;20391;-67
2024/04/03 02:46:33;;;;;;;0.30;0.30;;;;;;;6.32;79.10;99107.97;5081791;28;20088;-67
2024/04/03 02:49:00;;;;;;;0.30;0.30;;;;;;;6.46;79.41;99131.72;5098222;28;20057;-67
2024/04/03 02:51:29;;;;;;;0.55;0.50;;;;;;;6.43;79.27;99130.88;5115033;28;20039;-67
2024/04/03 02:53:55;;;;;;;0.30;0.30;;;;;;;6.44;79.24;99143.53;5115074;28;20027;-66
2024/04/03 02:56:23;;;;;;;0.30;0.30;;;;;;;6.40;79.41;99131.69;5114986;28;20028;-67
2024/04/03 02:58:50;;;;;;;0.20;0.20;;;;;;;6.37;79.67;99134.19;5114706;28;20036;-67
2024/04/03 03:01:18;;;;;;;0.25;0.25;;;;;;;6.36;79.01;99132.47;5114840;28;20059;-67
2024/04/03 03:03:44;;;;;;;1.55;0.85;;;;;;;6.36;78.88;99134.19;5114460;28;20035;-67
2024/04/03 03:06:12;;;;;;;0.30;0.30;;;;;;;6.34;79.28;99129.09;5114815;28;20039;-66
2024/04/03 03:08:40;;;;;;;0.30;0.30;;;;;;;6.38;79.25;99135.88;5113974;28;20402;-67
2024/04/03 03:11:08;;;;;;;0.30;0.30;;;;;;;6.35;79.35;99140.94;5114583;28;20042;-67
2024/04/03 03:13:34;;;;;;;0.22;0.22;;;;;;;6.33;79.30;99134.16;5114588;28;20044;-67
2024/04/03 03:16:03;;;;;;;0.30;0.30;;;;;;;6.32;79.10;99128.25;5114908;28;20035;-67
2024/04/03 03:18:32;;;;;;;0.28;0.28;;;;;;;6.30;79.58;99129.06;5097212;28;20043;-66
2024/04/03 03:21:00;;;;;;;0.28;0.28;;;;;;;6.32;79.53;99127.38;5080636;28;20398;-67
2024/04/03 03:23:27;;;;;;;0.40;0.40;;;;;;;6.28;79.47;99126.53;5114094;28;20040;-67
2024/04/03 03:25:56;;;;;;;0.30;0.30;;;;;;;6.28;79.38;99136.66;5114388;28;20534;-67
2024/04/03 03:28:23;;;;;;;5.18;1.50;;;;;;;6.18;79.50;99134.91;5114060;28;20513;-67
2024/04/03 03:30:51;;;;;;;0.30;0.30;;;;;;;6.11;79.26;99138.22;5113889;28;20094;-67
2024/04/03 03:33:18;;;;;;;0.45;0.45;;;;;;;6.03;79.47;99130.56;5114177;28;20451;-67
2024/04/03 03:35:52;;;;;;;0.28;0.28;;;;;;;5.99;79.42;99138.13;5096914;28;20405;-67
2024/04/03 03:38:20;;;;;;;0.30;0.30;;;;;;;6.01;79.75;99147.44;5114241;28;20047;-67
2024/04/03 03:40:47;;;;;;;0.20;0.20;;;;;;;5.90;79.43;99133.81;5114381;28;20044;-67
2024/04/03 03:43:17;;;;;;;0.28;0.28;;;;;;;5.90;79.73;99140.56;5113925;28;20401;-67
2024/04/03 03:45:46;;;;;;;0.85;0.85;;;;;;;5.85;79.91;99152.34;5113731;28;20050;-67
2024/04/03 03:48:13;;;;;;;0.47;0.47;;;;;;;5.90;80.17;99143.09;5113885;28;20046;-67
2024/04/03 03:53:26;;;;;;;0.30;0.30;;;;;;;5.83;80.22;99152.28;5113880;28;20051;-67
2024/04/03 03:55:54;;;;;;;0.75;0.70;;;;;;;5.83;80.13;99159.06;5113849;28;20047;-67
2024/04/03 03:58:23;;;;;;;0.43;0.43;;;;;;;5.82;79.97;99154.81;5113827;28;20061;-67
2024/04/03 04:00:51;;;;;;;0.30;0.30;;;;;;;5.79;79.99;99154.78;5113760;28;20084;-67
2024/04/03 04:03:19;;;;;;;1.17;0.43;;;;;;;5.77;79.87;99162.34;5113613;28;20043;-67
2024/04/03 04:05:45;;;;;;;1.75;0.85;;;;;;;5.85;80.43;99155.72;5096280;28;20517;-67
2024/04/03 04:08:13;;;;;;;0.30;0.30;;;;;;;5.85;79.74;99145.59;5113796;28;20408;-67
2024/04/03 04:10:40;;;;;;;1.95;0.82;;;;;;;5.89;79.81;99161.66;5114131;28;20436;-67
2024/04/03 04:13:08;;;;;;;0.85;0.85;;;;;;;5.84;79.91;99158.19;5096519;28;20043;-67
2024/04/03 04:15:36;;;;;;;0.43;0.43;;;;;;;5.81;79.72;99163.22;5113530;28;20039;-67
2024/04/03 04:18:04;;;;;;;1.10;0.77;;;;;;;5.81;80.16;99163.22;5113450;28;20040;-67
2024/04/03 04:20:31;;;;;;;0.50;0.50;;;;;;;5.78;80.04;99165.75;5095223;28;20073;-67
2024/04/03 04:22:58;;;;;;;0.40;0.40;;;;;;;5.89;80.04;99167.56;5096278;28;20393;-67
2024/04/03 04:25:25;;;;;;;0.40;0.40;;;;;;;5.84;79.71;99173.38;5112933;28;20097;-67
2024/04/03 04:27:53;;;;;;;0.20;0.20;;;;;;;5.78;79.90;99166.56;5113260;28;20047;-67
2024/04/03 04:30:19;;;;;;;0.30;0.30;;;;;;;5.67;79.52;99178.28;5113549;28;20043;-67
2024/04/03 04:32:48;;;;;;;0.30;0.30;;;;;;;5.63;79.28;99183.31;5096321;28;20035;-67
2024/04/03 04:35:16;;;;;;;0.30;0.30;;;;;;;5.59;79.42;99181.56;5113159;28;20048;-67
2024/04/03 04:37:44;;;;;;;0.30;0.30;;;;;;;5.56;79.46;99192.50;5113217;28;20103;-66
2024/04/03 04:40:14;;;;;;;2.72;1.30;;;;;;;5.53;79.63;99186.56;5113180;28;20527;-67
2024/04/03 04:42:43;;;;;;;0.25;0.25;;;;;;;5.58;79.83;99187.47;5113132;28;20036;-67
2024/04/03 04:45:10;;;;;;;0.38;0.38;;;;;;;5.55;79.91;99182.34;5112875;28;20052;-67
2024/04/03 04:47:37;;;;;;;0.20;0.20;;;;;;;5.51;79.91;99186.53;5113066;28;20042;-67
2024/04/03 04:50:09;;;;;;;0.50;0.50;;;;;;;5.56;80.47;99191.66;5112755;28;20035;-67
2024/04/03 04:52:38;;;;;;;0.40;0.40;;;;;;;5.53;80.28;99197.53;5113045;28;20486;-67
2024/04/03 04:55:04;;;;;;;0.50;0.50;;;;;;;5.58;80.49;99200.13;5112831;28;20035;-67
2024/04/03 04:57:32;;;;;;;0.30;0.30;;;;;;;5.66;80.00;99201.06;5096094;28;20124;-67
2024/04/03 04:59:59;;;;;;;0.70;0.70;;;;;;;5.72;80.78;99203.63;5113249;28;20039;-67
2024/04/03 05:02:26;;;;;;;0.30;0.30;;;;;;;5.78;80.98;99198.66;5095924;28;20390;-67
2024/04/03 05:04:53;;;;;;;0.60;0.60;;;;;;;5.88;81.15;99195.41;5112443;28;20096;-67
2024/04/03 05:07:23;;;;;;;0.22;0.22;;;;;;;5.97;80.85;99195.50;5113153;28;20100;-66
2024/04/03 05:09:49;;;;;;;1.20;1.10;;;;;;;6.04;81.51;99197.25;5112879;28;20096;-67
2024/04/03 05:12:17;;;;;;;0.20;0.20;;;;;;;6.21;81.02;99203.34;5112794;28;20039;-66
2024/04/03 05:14:44;;;;;;;0.40;0.40;;;;;;;6.27;81.14;99194.91;5113020;28;20047;-67
2024/04/03 05:17:11;;;;;;;0.30;0.30;;;;;;;6.33;81.47;99188.25;5095810;28;20100;-67
2024/04/03 05:19:38;;;;;;;0.35;0.35;;;;;;;6.41;81.05;99189.13;5112519;28;20044;-67
2024/04/03 05:22:10;;;;;;;0.30;0.30;;;;;;;6.52;80.79;99197.69;5095611;28;20032;-67
2024/04/03 05:24:39;;;;;;;0.20;0.20;;;;;;;6.55;81.18;99201.94;5112711;28;20047;-67
2024/04/03 05:27:06;;;;;;;0.30;0.30;;;;;;;6.56;80.66;99201.06;5112635;28;20039;-67
2024/04/03 05:29:33;;;;;;;0.75;0.73;;;;;;;6.62;81.00;99204.50;5112289;28;20042;-67
2024/04/03 05:32:00;;;;;;;0.47;0.47;;;;;;;6.78;81.39;99214.75;5115653;28;20100;-67
2024/04/03 05:34:27;;;;;;;0.60;0.60;;;;;;;6.83;80.92;99197.88;5099444;28;20139;-67
2024/04/03 05:36:55;;;;;;;0.47;0.47;;;;;;;7.02;80.80;99207.28;5116092;28;20528;-68
2024/04/03 05:39:21;;;;;;;3.08;1.15;;;;;;;7.12;80.24;99219.19;5116196;28;20046;-67
2024/04/03 05:41:51;;;;;;;0.75;0.75;;;;;;;7.29;80.41;99209.97;5116118;28;20036;-67
2024/04/03 05:44:17;;;;;;;0.40;0.40;;;;;;;7.51;79.75;99206.66;5116237;28;20040;-67
2024/04/03 05:46:46;;;;;;;0.30;0.30;;;;;;;7.78;79.33;99206.78;5116204;28;20087;-67
2024/04/03 05:49:12;;;;;;;0.43;0.43;;;;;;;8.01;78.74;99200.03;5115755;28;20039;-67
2024/04/03 05:51:40;;;;;;;0.30;0.30;;;;;;;8.13;77.98;99198.38;5116267;28;20050;-67
2024/04/03 05:54:07;;;;;;;0.30;0.30;;;;;;;8.19;77.15;99199.22;5099165;28;20043;-67
2024/04/03 05:56:36;;;;;;;0.40;0.40;;;;;;;8.17;76.14;99197.53;5116005;28;20527;-67
2024/04/03 05:59:04;;;;;;;0.32;0.32;;;;;;;8.09;76.15;99198.38;5115755;28;20035;-67
2024/04/03 06:01:33;;;;;;;1.30;1.23;;;;;;;8.09;75.56;99198.38;5116070;28;20040;-67
2024/04/03 06:03:59;;;;;;;2.95;1.02;;;;;;;8.13;76.08;99195.84;5099088;28;20042;-67
2024/04/03 06:06:27;;;;;;;0.52;0.52;;;;;;;8.23;76.39;99192.47;5098593;28;20046;-67
2024/04/03 06:08:54;;;;;;;0.60;0.60;;;;;;;8.36;75.80;99186.53;5115771;28;20464;-67
2024/04/03 06:11:22;;;;;;;2.42;1.13;;;;;;;8.54;76.00;99191.66;5115712;28;20039;-67
2024/04/03 06:13:49;;;;;;;0.40;0.40;;;;;;;8.76;76.38;99188.22;5116119;28;20075;-67
2024/04/03 06:16:18;;;;;;;0.88;0.60;;;;;;;8.84;76.27;99178.03;5098472;28;20046;-67
2024/04/03 06:18:45;;;;;;;0.40;0.40;;;;;;;8.84;76.09;99183.97;5115736;28;20051;-66
2024/04/03 06:21:13;;;;;;;1.13;0.93;;;;;;;8.86;76.55;99182.25;5115478;28;20047;-66
2024/04/03 06:23:40;;;;;;;1.75;1.00;;;;;;;8.88;76.64;99192.44;5115605;28;20040;-67
2024/04/03 06:26:08;;;;;;;2.35;2.15;;;;;;;8.96;76.98;99186.47;5115073;28;20452;-67
2024/04/03 06:28:35;;;;;;;0.75;0.75;;;;;;;9.24;76.80;99182.16;5098507;28;20549;-67
2024/04/03 06:31:02;;;;;;;0.60;0.60;;;;;;;9.59;76.51;99189.66;5115716;28;20031;-67
2024/04/03 06:33:31;;;;;;;0.77;0.77;;;;;;;9.84;75.91;99186.09;5098284;28;20039;-67
2024/04/03 06:35:59;;;;;;;0.63;0.63;;;;;;;10.11;74.81;99193.59;5115090;28;20039;-67
2024/04/03 06:38:26;;;;;;;0.50;0.50;;;;;;;10.29;73.66;99185.00;5115308;28;20036;-67
2024/04/03 06:40:53;;;;;;;0.88;0.88;;;;;;;10.58;72.85;99194.09;5115290;28;20398;-67
2024/04/03 06:43:20;;;;;;;1.60;1.00;;;;;;;10.76;71.46;99201.59;5114056;28;20040;-67
2024/04/03 06:45:55;;;;;;;0.55;0.55;;;;;;;10.95;71.28;99193.75;5097959;28;20039;-67
2024/04/03 06:48:22;;;;;;;0.40;0.40;;;;;;;11.18;70.67;99204.59;5114868;28;20387;-67
2024/04/03 06:50:54;;;;;;;0.40;0.40;;;;;;;11.27;69.89;99201.94;5114985;28;20046;-67
2024/04/03 06:53:21;;;;;;;0.40;0.40;;;;;;;11.33;69.14;99189.06;5098071;28;20075;-68
2024/04/03 06:55:56;;;;;;;0.60;0.60;;;;;;;11.62;69.02;99204.06;5114945;28;20054;-67
2024/04/03 06:58:23;;;;;;;0.40;0.40;;;;;;;11.74;68.43;99204.78;5115077;28;20130;-67
2024/04/03 07:00:50;;;;;;;0.50;0.50;;;;;;;11.89;68.10;99199.47;5114865;28;20092;-67
2024/04/03 07:03:17;;;;;;;1.10;0.80;;;;;;;12.03;67.14;99196.72;5114395;28;20048;-67
2024/04/03 07:05:45;;;;;;;0.60;0.60;;;;;;;12.14;66.80;99194.00;5114646;28;20103;-66
2024/04/03 07:08:14;;;;;;;0.35;0.35;;;;;;;11.97;67.01;99145.66;5114645;28;20036;-67
2024/04/03 07:10:41;;;;;;;0.40;0.40;;;;;;;12.43;67.11;99191.84;5114301;28;20043;-67
2024/04/03 07:13:08;;;;;;;0.68;0.65;;;;;;;12.65;67.37;99180.38;5114250;28;20043;-66
2024/04/03 07:15:36;;;;;;;0.75;0.75;;;;;;;12.74;66.72;99172.53;5114645;28;20112;-67
2024/04/03 07:18:03;;;;;;;0.50;0.50;;;;;;;12.95;67.23;99172.16;5114426;28;20035;-67
2024/04/03 07:20:31;;;;;;;0.32;0.32;;;;;;;13.19;67.26;99174.28;5114204;28;20093;-66
2024/04/03 07:22:59;;;;;;;0.60;0.60;;;;;;;13.36;64.11;99163.69;5114386;28;20059;-66
2024/04/03 07:25:28;;;;;;;0.43;0.43;;;;;;;13.56;62.37;99165.81;5113980;28;20550;-67
2024/04/03 07:27:55;;;;;;;2.80;0.73;;;;;;;13.70;60.49;99169.78;5113922;28;20056;-66
2024/04/03 07:30:22;;;;;;;0.35;0.35;;;;;;;13.83;60.57;99160.13;5114160;28;20039;-66
2024/04/03 07:32:49;;;;;;;0.50;0.50;;;;;;;13.90;59.17;99152.25;5114279;28;20439;-67
2024/04/03 07:35:17;;;;;;;1.75;1.58;;;;;;;14.03;59.13;99163.09;5097136;28;20047;-67
2024/04/03 07:37:44;;;;;;;0.40;0.40;;;;;;;14.21;58.27;99162.66;5114144;28;20093;-67
2024/04/03 07:40:12;;;;;;;0.40;0.40;;;;;;;14.27;58.41;99172.78;5096953;28;20493;-67
2024/04/03 07:42:43;;;;;;;0.60;0.60;;;;;;;14.43;57.91;99169.00;5113688;28;20382;-67
2024/04/03 07:45:11;;;;;;;1.55;1.10;;;;;;;14.51;57.55;99172.22;5096998;28;20036;-67
2024/04/03 07:47:38;;;;;;;0.32;0.32;;;;;;;14.63;57.24;99171.91;5096914;28;20047;-66
2024/04/03 07:50:07;;;;;;;0.40;0.40;;;;;;;14.81;57.26;99180.00;5113962;28;20081;-67
2024/04/03 07:52:37;;;;;;;0.50;0.50;;;;;;;14.89;56.01;99175.53;5113622;28;20401;-67
2024/04/03 07:55:05;;;;;;;0.40;0.40;;;;;;;15.02;55.72;99169.19;5096742;28;20390;-67
2024/04/03 07:57:33;;;;;;;0.40;0.40;;;;;;;15.11;55.10;99168.94;5113423;28;20544;-66
2024/04/03 08:00:03;;;;;;;0.30;0.30;;;;;;;15.29;54.45;99163.28;5113654;28;20048;-67
2024/04/03 08:02:37;;;;;;;0.43;0.43;;;;;;;15.36;54.13;99164.78;5113584;28;20040;-68
2024/04/03 08:05:05;;;;;;;0.30;0.30;;;;;;;15.41;54.33;99162.94;5096417;28;20047;-66
2024/04/03 08:07:32;;;;;;;0.30;0.30;;;;;;;15.52;53.71;99176.38;5113575;28;20036;-68
2024/04/03 08:10:01;;;;;;;0.50;0.50;;;;;;;15.60;53.45;99174.41;5096370;28;20071;-66
2024/04/03 08:12:28;;;;;;;;;;;;;;;15.67;52.98;99175.91;5114031;28;20070;-67
2024/04/03 08:14:57;;;;;;;0.52;0.52;;;;;;;15.67;53.89;99175.91;5113498;28;20389;-66
2024/04/03 08:17:26;;;;;;;0.60;0.60;;;;;;;15.78;54.71;99179.03;5113641;28;20075;-67
2024/04/03 08:19:55;;;;;;;0.40;0.40;;;;;;;15.85;54.88;99180.53;5095958;28;20456;-68
2024/04/03 08:22:22;;;;;;;0.63;0.63;;;;;;;15.96;54.79;99175.03;5113568;28;20513;-66
2024/04/03 08:24:52;;;;;;;0.50;0.50;;;;;;;15.93;54.19;99181.13;5113344;28;20051;-66
2024/04/03 08:27:18;;;;;;;0.40;0.40;;;;;;;16.10;54.17;99171.16;5112839;28;20051;-66
2024/04/03 08:29:48;;;;;;;0.50;0.50;;;;;;;16.24;54.32;99169.88;5096019;28;20043;-67
2024/04/03 08:32:15;;;;;;;1.17;1.10;;;;;;;16.29;54.67;99134.53;5096399;28;20048;-67
2024/04/03 08:34:45;;;;;;;0.38;0.38;;;;;;;16.54;53.68;99156.03;5112915;28;20084;-67
2024/04/03 08:37:12;;;;;;;0.43;0.43;;;;;;;16.64;53.41;99152.28;5113137;28;20123;-66
2024/04/03 08:39:40;;;;;;;0.40;0.40;;;;;;;16.70;52.88;99136.59;5095957;28;20055;-67
2024/04/03 08:42:09;;;;;;;0.50;0.50;;;;;;;16.80;52.66;99150.84;5112817;28;20516;-67
2024/04/03 08:44:36;;;;;;;0.50;0.50;;;;;;;16.78;51.69;99155.22;5112678;28;20039;-67
2024/04/03 08:47:04;;;;;;;0.52;0.52;;;;;;;16.81;51.98;99139.66;5113374;28;20454;-68
2024/04/03 08:49:33;;;;;;;0.85;0.85;;;;;;;16.91;50.65;99135.88;5112956;28;20039;-67
2024/04/03 08:52:03;;;;;;;0.40;0.40;;;;;;;16.94;50.63;99151.19;5112739;28;20540;-66
2024/04/03 08:54:31;;;;;;;0.40;0.40;;;;;;;16.99;51.53;99154.47;5112700;28;20058;-67
2024/04/03 08:57:01;;;;;;;0.40;0.40;;;;;;;17.06;50.20;99153.34;5112966;28;20043;-67
2024/04/03 08:59:32;;;;;;;0.30;0.30;;;;;;;17.09;48.92;99160.13;5112995;28;20078;-66
2024/04/03 09:01:59;;;;;;;0.40;0.40;;;;;;;17.06;50.20;99158.50;5095666;28;20488;-66
2024/04/03 09:04:26;;;;;;;0.43;0.43;;;;;;;17.12;49.79;99150.56;5112706;28;20043;-66
2024/04/03 09:06:54;;;;;;;0.35;0.35;;;;;;;17.12;48.55;99150.56;5115850;28;20439;-66
2024/04/03 09:09:25;;;;;;;0.80;0.80;;;;;;;17.14;48.85;99143.63;5099965;28;20093;-66
2024/04/03 09:12:00;;;;;;;0.30;0.30;;;;;;;17.16;48.71;99136.66;5117044;28;20048;-66
2024/04/03 09:14:28;;;;;;;0.43;0.43;;;;;;;17.24;48.95;99149.28;5116830;28;20040;-66
2024/04/03 09:16:58;;;;;;;1.23;1.13;;;;;;;17.26;48.81;99150.91;5116402;28;20059;-67
2024/04/03 09:19:27;;;;;;;0.40;0.40;;;;;;;17.44;48.41;99152.00;5116522;28;20104;-66
2024/04/03 09:21:53;;;;;;;0.40;0.40;;;;;;;17.48;48.20;99150.97;5116640;28;20043;-65
2024/04/03 09:24:23;;;;;;;0.30;0.30;;;;;;;17.41;46.89;99136.63;5116541;28;20046;-65
2024/04/03 09:26:51;;;;;;;0.40;0.40;;;;;;;17.51;46.50;99155.19;5116359;28;20039;-65
2024/04/03 09:29:20;;;;;;;0.52;0.47;;;;;;;17.58;46.84;99143.75;5116229;28;20443;-66
2024/04/03 09:31:47;;;;;;;0.40;0.40;;;;;;;17.59;46.02;99142.88;5116405;28;20393;-65
2024/04/03 09:34:15;;;;;;;0.63;0.60;;;;;;;17.44;44.68;99137.31;5099450;28;20036;-65
2024/04/03 09:36:42;;;;;;;0.60;0.45;;;;;;;17.42;45.21;99123.66;5099371;28;20401;-65
2024/04/03 09:39:11;;;;;;;0.50;0.50;;;;;;;17.63;45.29;99140.13;5116360;28;20073;-65
2024/04/03 09:41:43;;;;;;;4.13;0.60;;;;;;;17.74;46.00;99142.28;5116210;28;20039;-66
2024/04/03 09:44:13;;;;;;;0.30;0.30;;;;;;;17.92;46.41;99139.00;5116174;28;20050;-65
2024/04/03 09:46:46;;;;;;;11.60;0.95;;;;;;;18.13;46.66;99150.22;5115761;28;20051;-65
2024/04/03 09:49:15;;;;;;;0.40;0.40;;;;;;;17.99;46.08;99145.59;5115869;28;20036;-65
2024/04/03 09:51:41;;;;;;;0.40;0.40;;;;;;;17.99;45.16;99148.19;5116249;28;20489;-66
2024/04/03 09:54:10;;;;;;;0.40;0.40;;;;;;;17.58;45.48;99143.75;5099238;28;20164;-64
2024/04/03 09:56:41;;;;;;;0.57;0.50;;;;;;;17.80;46.36;99142.06;5116243;28;20043;-67
2024/04/03 09:59:09;;;;;;;0.38;0.38;;;;;;;17.54;45.50;99131.88;5116148;28;20112;-67
2024/04/03 10:01:36;;;;;;;0.47;0.47;;;;;;;17.67;45.13;99139.09;5099122;28;20035;-65
2024/04/03 10:04:05;;;;;;;0.50;0.50;;;;;;;17.67;44.72;99127.91;5115792;28;20034;-65
2024/04/03 10:06:36;;;;;;;0.40;0.40;;;;;;;17.65;44.43;99129.72;5098867;28;20077;-64
2024/04/03 10:09:26;;;;;;;0.38;0.38;;;;;;;17.93;44.14;99125.16;5115717;28;20040;-66
2024/04/03 10:11:57;;;;;;;0.50;0.50;;;;;;;18.02;43.38;99129.97;5098755;28;20043;-64
2024/04/03 10:14:28;;;;;;;0.50;0.50;;;;;;;18.13;44.29;99129.53;5115885;28;20450;-65
2024/04/03 10:16:55;;;;;;;1.13;1.05;;;;;;;18.23;44.21;99123.13;5114870;28;20048;-65
2024/04/03 10:19:23;;;;;;;0.65;0.65;;;;;;;18.26;43.56;99126.41;5115137;28;20047;-65
2024/04/03 10:21:50;;;;;;;0.40;0.40;;;;;;;18.43;43.58;99116.22;5115644;28;20565;-64
2024/04/03 10:24:19;;;;;;;0.40;0.40;;;;;;;18.62;43.93;99117.16;5098592;28;20040;-66
2024/04/03 10:26:46;;;;;;;0.30;0.30;;;;;;;18.81;43.15;99111.22;5115405;28;20032;-64
2024/04/03 10:29:15;;;;;;;0.40;0.40;;;;;;;19.06;43.45;99111.81;5115386;28;20043;-66
2024/04/03 10:31:46;;;;;;;0.40;0.40;;;;;;;19.06;41.95;99109.22;5115556;28;20044;-64
2024/04/03 10:34:19;;;;;;;0.40;0.40;;;;;;;19.12;42.26;99116.72;5115181;28;20485;-66
2024/04/03 10:36:46;;;;;;;0.40;0.40;;;;;;;19.06;40.62;99106.63;5097699;28;20040;-65
2024/04/03 10:39:14;;;;;;;0.50;0.50;;;;;;;18.90;40.18;99079.78;5115341;28;20085;-66
2024/04/03 10:41:42;;;;;;;0.40;0.40;;;;;;;19.08;40.78;99107.41;5114919;28;20046;-65
2024/04/03 10:44:12;;;;;;;0.40;0.40;;;;;;;19.10;41.25;99103.03;5115261;28;20043;-65
2024/04/03 10:46:40;;;;;;;2.38;0.98;;;;;;;19.15;41.45;99095.88;5115222;28;20093;-66
2024/04/03 10:49:11;;;;;;;0.50;0.50;;;;;;;19.24;41.00;99095.47;5115140;28;20039;-66
2024/04/03 10:51:37;;;;;;;0.40;0.40;;;;;;;19.42;41.63;99099.84;5114987;28;20093;-65
2024/04/03 10:54:07;;;;;;;0.77;0.75;;;;;;;19.46;40.75;99105.72;5115055;28;20043;-66
2024/04/03 10:56:34;;;;;;;0.40;0.40;;;;;;;19.56;40.36;99097.44;5114768;28;20516;-66
2024/04/03 10:59:01;;;;;;;0.30;0.30;;;;;;;19.66;40.39;99103.88;5114904;28;20504;-66
2024/04/03 11:01:29;;;;;;;0.40;0.40;;;;;;;19.51;38.77;99094.22;5080998;28;20139;-65
2024/04/03 11:04:00;;;;;;;0.40;0.40;;;;;;;19.64;39.72;99079.81;5115003;28;20040;-66
2024/04/03 11:06:26;;;;;;;0.32;0.32;;;;;;;19.76;40.02;99079.25;5114815;28;20457;-66
2024/04/03 11:08:54;;;;;;;0.40;0.40;;;;;;;19.89;40.30;99085.50;5114562;28;20032;-66
2024/04/03 11:11:21;;;;;;;0.30;0.30;;;;;;;19.83;38.83;99084.97;5114838;28;20032;-66
2024/04/03 11:13:49;;;;;;;0.52;0.52;;;;;;;19.65;39.01;99076.31;5097545;28;20043;-66
2024/04/03 11:16:21;;;;;;;0.40;0.40;;;;;;;19.81;39.49;99082.47;5114603;28;20051;-66
2024/04/03 11:18:51;;;;;;;0.70;0.70;;;;;;;20.08;39.47;99074.25;5114311;28;20517;-65
2024/04/03 11:21:20;;;;;;;0.40;0.40;;;;;;;19.94;38.77;99083.53;5097674;28;20051;-66
2024/04/03 11:23:50;;;;;;;0.40;0.40;;;;;;;19.96;39.21;99075.72;5114378;28;20090;-65
2024/04/03 11:26:17;;;;;;;0.75;0.75;;;;;;;19.79;38.51;99073.94;5114482;28;20031;-65
2024/04/03 11:28:45;;;;;;;0.30;0.30;;;;;;;19.56;39.05;99075.91;5113955;28;20047;-65
2024/04/03 11:31:12;;;;;;;0.80;0.80;;;;;;;19.66;38.89;99072.81;5096828;28;20069;-65
2024/04/03 11:33:43;;;;;;;0.60;0.60;;;;;;;19.56;38.99;99076.75;5114374;28;20044;-66
2024/04/03 11:36:10;;;;;;;0.50;0.50;;;;;;;19.62;39.24;99071.28;5114068;28;20500;-66
2024/04/03 11:38:39;;;;;;;0.40;0.40;;;;;;;19.73;38.31;99069.03;5114083;28;20040;-65
2024/04/03 11:41:06;;;;;;;0.30;0.30;;;;;;;19.86;38.60;99072.72;5114210;28;20509;-65
2024/04/03 11:43:34;;;;;;;1.23;0.90;;;;;;;20.16;39.01;99066.94;5114034;28;20493;-65
2024/04/03 11:46:00;;;;;;;0.50;0.50;;;;;;;20.42;38.27;99066.53;5113914;28;20027;-65